Hope, Kentucky
Current Conditions -  °F | °C
As of 1:55 AM on Monday 24 Nov 2014 (Local Time) from KIOB Reporting Station
Light Rain Light Rain  
Wind Chill: 59°   Ceiling: 1500
Heat Index: 59°   Visibility: 10mi
Dew Point: 57°   Wind: 17mph
Humidity: 94%   Direction: 240°WSW
Pressure: 29.45"   Gusts: 24mph
Location:  38.02°N, 83.77°W
Report Text: KIOB 240655Z AUTO 24015G21KT 10SM -RA OVC015 15/14 A2945 RMK AO2
Loading
Personal Weather Stations






























Interactive Weather Map New forecast layout! Learn more

10-Day Weather Forecast

Advertisements
Track Severe Weather on mobile